»·PEaware :: SWA2406 KLAS-KSEA

SWA2406 :: KLAS-KSEA

FLIGHT INFORMATION

Flight Status: Arrived
Operator:
Southwest Airlines
More flights by this operator :: More flights under this callsign
Pilot: Cody B. (17747)
Aircraft: BOEING 737-800
(B738)
More flights by this aircraft type
Origin: KLAS McCarran Intl
United States
Destination: KSEA Seattle-Tacoma Intl
United States
More flights between these airports :: More routes between these airports
Route: +SHEAD1 OAL LOMIA LKV HAWKZ7
File this flight plan on PilotEdge
Remarks: RMK / SIMBRIEF
Altitude:
(Current/Filed)
36,000ft
Speed:
(Current/Filed)
462kts
Departed: 03-Nov-20 02:17 PM
Arrived: 03-Nov-20 04:28 PM
Distance/Time
Traveled:
752nm/2:11
Distance/Time
To Go:
Arrived

Flight Plot

Page will automatically refresh every two minutes.

Flight plan parsing failed; only flown route is shown


Map Options




Map Legend


Flown Route
Filed Route
Departure Airport
Arrival Airport
Navaid (VOR, NDB)
Fix

Horizontal Profiles

Position Reports

Time Latitude Longitude Heading Altitude Ground
Speed
03-Nov-20 12:52 36.082309 -115.150726 350 2108ft 0kts
03-Nov-20 12:53 36.082309 -115.150726 350 2109ft 0kts
03-Nov-20 12:54 36.082309 -115.150726 350 2109ft 0kts
03-Nov-20 12:55 36.082309 -115.150726 350 2109ft 0kts
03-Nov-20 12:56 36.082309 -115.150726 350 2108ft 0kts
03-Nov-20 12:57 36.082309 -115.150726 350 2108ft 0kts
03-Nov-20 12:58 36.082309 -115.150726 350 2108ft 0kts
03-Nov-20 12:59 36.082309 -115.150726 350 2109ft 0kts
03-Nov-20 13:00 36.082309 -115.150726 350 2108ft 0kts
03-Nov-20 13:01 36.082309 -115.150726 350 2108ft 0kts
03-Nov-20 13:02 36.082309 -115.150726 350 2108ft 0kts
03-Nov-20 13:03 36.082309 -115.150726 350 2108ft 0kts
03-Nov-20 13:04 36.082309 -115.150726 350 2108ft 0kts
03-Nov-20 13:05 36.082308 -115.150726 350 2108ft 0kts
03-Nov-20 13:06 36.082308 -115.150726 350 2108ft 0kts
03-Nov-20 13:07 36.082308 -115.150726 350 2108ft 0kts
03-Nov-20 13:08 36.082308 -115.150726 350 2108ft 0kts
03-Nov-20 13:09 36.082308 -115.150726 350 2108ft 0kts
03-Nov-20 13:10 36.082308 -115.150726 350 2108ft 0kts
03-Nov-20 13:11 36.082308 -115.150726 350 2108ft 0kts
03-Nov-20 13:12 36.082308 -115.150726 350 2108ft 0kts
03-Nov-20 13:13 36.082308 -115.150726 350 2108ft 0kts
03-Nov-20 13:14 36.082308 -115.150726 350 2108ft 0kts
03-Nov-20 13:15 36.082308 -115.150726 350 2108ft 0kts
03-Nov-20 13:16 36.082308 -115.150726 350 2108ft 0kts
03-Nov-20 13:17 36.082308 -115.150726 350 2108ft 0kts
03-Nov-20 13:18 36.082308 -115.150726 350 2108ft 0kts
03-Nov-20 13:19 36.082308 -115.150726 350 2108ft 0kts
03-Nov-20 13:20 36.082308 -115.150726 350 2108ft 0kts
03-Nov-20 13:21 36.082308 -115.150726 350 2108ft 0kts
03-Nov-20 13:22 36.082308 -115.150726 350 2108ft 0kts
03-Nov-20 13:23 36.082308 -115.150726 350 2108ft 0kts
03-Nov-20 13:24 36.082308 -115.150726 350 2108ft 0kts
03-Nov-20 13:25 36.082308 -115.150726 350 2108ft 0kts
03-Nov-20 13:26 36.082308 -115.150726 350 2108ft 0kts
03-Nov-20 13:27 36.082308 -115.150726 350 2108ft 0kts
03-Nov-20 13:28 36.082308 -115.150726 350 2108ft 0kts
03-Nov-20 13:29 36.082308 -115.150726 350 2108ft 0kts
03-Nov-20 13:31 36.082308 -115.150726 350 2108ft 0kts
03-Nov-20 13:32 36.082308 -115.150726 350 2108ft 0kts
03-Nov-20 13:33 36.082308 -115.150726 350 2108ft 0kts
03-Nov-20 13:34 36.082308 -115.150726 350 2108ft 0kts
03-Nov-20 13:35 36.082308 -115.150726 350 2108ft 0kts
03-Nov-20 13:36 36.082308 -115.150726 350 2108ft 0kts
03-Nov-20 13:37 36.082308 -115.150726 350 2108ft 0kts
03-Nov-20 13:38 36.082308 -115.150726 350 2108ft 0kts
03-Nov-20 13:39 36.082308 -115.150726 350 2108ft 0kts
03-Nov-20 13:40 36.082308 -115.150726 350 2108ft 0kts
03-Nov-20 13:41 36.082308 -115.150726 350 2108ft 0kts
03-Nov-20 13:42 36.082308 -115.150726 350 2108ft 0kts
03-Nov-20 13:43 36.082308 -115.150726 350 2108ft 0kts
03-Nov-20 13:44 36.082308 -115.150726 350 2108ft 0kts
03-Nov-20 13:45 36.082308 -115.150726 350 2108ft 0kts
03-Nov-20 13:46 36.082308 -115.150726 350 2108ft 0kts
03-Nov-20 13:47 36.082308 -115.150726 350 2108ft 0kts
03-Nov-20 13:48 36.082308 -115.150726 350 2108ft 0kts
03-Nov-20 13:49 36.082308 -115.150726 350 2108ft 0kts
03-Nov-20 13:49 36.082308 -115.150726 350 2108ft 0kts
03-Nov-20 13:51 36.082308 -115.150726 350 2108ft 0kts
03-Nov-20 13:51 36.082308 -115.150726 350 2108ft 0kts
03-Nov-20 13:53 36.082308 -115.150726 350 2108ft 0kts
03-Nov-20 13:53 36.082308 -115.150726 350 2108ft 0kts
03-Nov-20 13:55 36.082308 -115.150726 350 2108ft 0kts
03-Nov-20 13:55 36.082308 -115.150726 350 2108ft 0kts
03-Nov-20 13:56 36.082308 -115.150726 350 2108ft 0kts
03-Nov-20 13:57 36.082308 -115.150726 350 2108ft 0kts
03-Nov-20 13:58 36.082308 -115.150726 350 2108ft 0kts
03-Nov-20 13:59 36.082308 -115.150726 350 2108ft 0kts
03-Nov-20 14:00 36.082308 -115.150726 350 2108ft 0kts
03-Nov-20 14:01 36.082234 -115.150710 349 2108ft 2kts
03-Nov-20 14:02 36.081710 -115.150585 321 2109ft 2kts
03-Nov-20 14:03 36.081731 -115.150197 225 2107ft 0kts
03-Nov-20 14:04 36.081731 -115.150197 225 2107ft 0kts
03-Nov-20 14:05 36.081733 -115.150194 225 2107ft 0kts
03-Nov-20 14:06 36.081516 -115.150488 231 2109ft 4kts
03-Nov-20 14:07 36.081104 -115.153143 284 2121ft 0kts
03-Nov-20 14:08 36.081032 -115.152783 283 2120ft 0kts
03-Nov-20 14:09 36.081036 -115.152804 283 2120ft 0kts
03-Nov-20 14:10 36.082551 -115.154518 335 2124ft 14kts
03-Nov-20 14:11 36.085086 -115.156760 300 2126ft 6kts
03-Nov-20 14:12 36.088725 -115.156841 25 2117ft 24kts
03-Nov-20 14:13 36.094811 -115.153485 24 2091ft 22kts
03-Nov-20 14:14 36.098039 -115.152587 296 2081ft 6kts
03-Nov-20 14:15 36.098236 -115.153737 208 2084ft 2kts
03-Nov-20 14:16 36.071953 -115.169146 206 2977ft 181kts
03-Nov-20 14:17 36.021394 -115.201517 219 4614ft 249kts
03-Nov-20 14:18 35.980439 -115.280281 241 6989ft 294kts
03-Nov-20 14:19 35.927090 -115.355258 223 10421ft 295kts
03-Nov-20 14:20 35.888835 -115.455775 265 12313ft 351kts
03-Nov-20 14:21 35.891001 -115.577902 271 15229ft 364kts
03-Nov-20 14:22 35.893324 -115.704553 270 17979ft 375kts
03-Nov-20 14:23 35.894237 -115.835711 270 19084ft 379kts
03-Nov-20 14:24 35.908843 -115.963632 298 20435ft 387kts
03-Nov-20 14:25 35.979804 -116.064336 314 22782ft 398kts
03-Nov-20 14:26 36.059743 -116.158528 314 24930ft 404kts
03-Nov-20 14:27 36.130430 -116.240489 314 26688ft 408kts
03-Nov-20 14:28 36.223240 -116.348011 313 28674ft 413kts
03-Nov-20 14:29 36.307503 -116.445792 313 30393ft 415kts
03-Nov-20 14:30 36.391347 -116.543364 314 32122ft 413kts
03-Nov-20 14:31 36.474623 -116.640858 314 33694ft 410kts
03-Nov-20 14:32 36.558922 -116.735962 320 35123ft 411kts
03-Nov-20 14:33 36.654387 -116.814774 325 36143ft 417kts
03-Nov-20 14:34 36.753317 -116.891053 325 36137ft 416kts
03-Nov-20 14:35 36.851618 -116.966215 326 36145ft 415kts
03-Nov-20 14:36 36.950252 -117.041651 326 36154ft 416kts
03-Nov-20 14:37 37.049074 -117.117387 326 36163ft 416kts
03-Nov-20 14:38 37.147403 -117.192957 326 36169ft 415kts
03-Nov-20 14:39 37.245747 -117.268766 327 36203ft 415kts
03-Nov-20 14:40 37.345910 -117.340492 331 36219ft 416kts
03-Nov-20 14:41 37.448581 -117.407205 331 36219ft 413kts
03-Nov-20 14:42 37.550140 -117.473170 331 36219ft 413kts
03-Nov-20 14:43 37.652310 -117.539660 332 36219ft 413kts
03-Nov-20 14:44 37.754256 -117.606207 332 36219ft 411kts
03-Nov-20 14:45 37.856098 -117.672909 331 36233ft 412kts
03-Nov-20 14:46 37.957423 -117.739571 331 36246ft 410kts
03-Nov-20 14:47 38.050952 -117.822899 320 36246ft 411kts
03-Nov-20 14:48 38.138027 -117.915459 320 36244ft 410kts
03-Nov-20 14:49 38.225580 -118.009633 320 36241ft 410kts
03-Nov-20 14:50 38.312528 -118.103623 320 36223ft 410kts
03-Nov-20 14:51 38.399436 -118.197917 320 36203ft 410kts
03-Nov-20 14:52 38.486423 -118.292607 320 36201ft 412kts
03-Nov-20 14:53 38.573569 -118.387808 320 36201ft 411kts
03-Nov-20 14:54 38.660585 -118.483155 320 36201ft 413kts
03-Nov-20 14:55 38.747627 -118.578866 320 36201ft 412kts
03-Nov-20 14:56 38.834776 -118.675013 319 36201ft 414kts
03-Nov-20 14:57 38.921647 -118.771265 319 36197ft 413kts
03-Nov-20 14:58 39.007714 -118.866880 319 36196ft 413kts
03-Nov-20 14:59 39.094382 -118.963455 319 36194ft 414kts
03-Nov-20 15:00 39.181697 -119.061073 319 36201ft 414kts
03-Nov-20 15:01 39.282666 -119.127457 338 36201ft 416kts
03-Nov-20 15:02 39.392101 -119.175374 340 36201ft 416kts
03-Nov-20 15:03 39.502054 -119.220999 341 36201ft 417kts
03-Nov-20 15:04 39.612684 -119.266559 341 36214ft 418kts
03-Nov-20 15:05 39.723275 -119.312119 341 36219ft 418kts
03-Nov-20 15:06 39.834240 -119.357919 340 36219ft 417kts
03-Nov-20 15:07 39.944863 -119.403748 340 36219ft 419kts
03-Nov-20 15:08 40.055969 -119.449918 340 36219ft 420kts
03-Nov-20 15:09 40.167038 -119.496243 340 36219ft 420kts
03-Nov-20 15:10 40.278267 -119.542794 340 36201ft 420kts
03-Nov-20 15:11 40.388220 -119.588959 340 36192ft 420kts
03-Nov-20 15:12 40.499323 -119.635772 340 36192ft 420kts
03-Nov-20 15:13 40.610617 -119.682849 340 36192ft 421kts
03-Nov-20 15:14 40.722323 -119.730279 339 36184ft 421kts
03-Nov-20 15:15 40.833797 -119.777744 339 36173ft 422kts
03-Nov-20 15:16 40.945609 -119.825503 339 36173ft 423kts
03-Nov-20 15:17 41.057741 -119.873574 339 36173ft 424kts
03-Nov-20 15:18 41.169396 -119.921624 339 36173ft 425kts
03-Nov-20 15:19 41.281820 -119.970158 339 36173ft 425kts
03-Nov-20 15:20 41.393938 -120.018743 338 36180ft 427kts
03-Nov-20 15:21 41.506866 -120.067878 338 36182ft 428kts
03-Nov-20 15:22 41.619147 -120.116907 338 36183ft 428kts
03-Nov-20 15:23 41.732530 -120.166605 338 36182ft 428kts
03-Nov-20 15:24 41.845130 -120.216125 338 36183ft 429kts
03-Nov-20 15:25 41.958953 -120.266378 338 36184ft 429kts
03-Nov-20 15:27 42.071822 -120.316390 338 36190ft 429kts
03-Nov-20 15:28 42.184745 -120.366599 338 36192ft 429kts
03-Nov-20 15:29 42.298023 -120.417183 338 36192ft 430kts
03-Nov-20 15:30 42.411619 -120.468071 338 36192ft 431kts
03-Nov-20 15:31 42.523334 -120.525051 332 36192ft 428kts
03-Nov-20 15:32 42.631876 -120.590798 332 36188ft 428kts
03-Nov-20 15:33 42.741020 -120.656996 331 36183ft 429kts
03-Nov-20 15:34 42.850057 -120.723365 331 36183ft 429kts
03-Nov-20 15:35 42.958761 -120.789758 331 36182ft 429kts
03-Nov-20 15:36 43.067798 -120.856591 331 36179ft 429kts
03-Nov-20 15:37 43.175886 -120.923107 331 36155ft 430kts
03-Nov-20 15:38 43.284302 -120.990071 331 36149ft 429kts
03-Nov-20 15:39 43.392907 -121.057411 331 36156ft 429kts
03-Nov-20 15:40 43.501824 -121.125222 330 36164ft 429kts
03-Nov-20 15:41 43.610415 -121.193097 330 36171ft 429kts
03-Nov-20 15:42 43.719106 -121.261307 330 36170ft 429kts
03-Nov-20 15:42 43.807822 -121.317355 330 36160ft 428kts
03-Nov-20 15:44 43.933927 -121.398113 330 36155ft 427kts
03-Nov-20 15:44 44.023304 -121.455084 330 36155ft 428kts
03-Nov-20 15:46 44.148558 -121.535043 330 36155ft 428kts
03-Nov-20 15:46 44.237536 -121.592020 330 36155ft 428kts
03-Nov-20 15:47 44.333282 -121.653526 329 36155ft 429kts
03-Nov-20 15:48 44.435501 -121.719450 329 36132ft 429kts
03-Nov-20 15:49 44.549758 -121.793425 329 36119ft 430kts
03-Nov-20 15:50 44.659571 -121.864809 329 36118ft 431kts
03-Nov-20 15:51 44.766385 -121.934510 329 36117ft 432kts
03-Nov-20 15:52 44.876093 -122.006424 329 36102ft 435kts
03-Nov-20 15:53 44.981700 -122.075907 329 36085ft 430kts
03-Nov-20 15:54 45.090343 -122.147724 328 36072ft 434kts
03-Nov-20 15:55 45.195286 -122.217360 328 36073ft 432kts
03-Nov-20 15:56 45.304504 -122.290187 328 36037ft 435kts
03-Nov-20 15:57 45.414664 -122.365189 328 33019ft 444kts
03-Nov-20 15:58 45.520707 -122.436896 328 29742ft 446kts
03-Nov-20 15:59 45.629529 -122.510455 328 27016ft 429kts
03-Nov-20 16:00 45.736187 -122.575741 337 24310ft 421kts
03-Nov-20 16:01 45.846677 -122.612928 343 24061ft 428kts
03-Nov-20 16:02 45.961396 -122.643361 344 23170ft 420kts
03-Nov-20 16:03 46.075644 -122.672258 343 22177ft 419kts
03-Nov-20 16:04 46.189118 -122.696231 346 22031ft 420kts
03-Nov-20 16:05 46.296464 -122.717287 346 22009ft 418kts
03-Nov-20 16:06 46.415365 -122.724976 352 22009ft 423kts
03-Nov-20 16:07 46.526411 -122.729154 352 21105ft 411kts
03-Nov-20 16:08 46.641207 -122.733404 352 18902ft 403kts
03-Nov-20 16:09 46.750549 -122.731341 5 16801ft 397kts
03-Nov-20 16:10 46.845598 -122.664326 34 15421ft 381kts
03-Nov-20 16:11 46.921173 -122.581220 29 14176ft 359kts
03-Nov-20 16:12 47.006885 -122.531741 10 13004ft 332kts
03-Nov-20 16:13 47.095685 -122.496901 1 11584ft 315kts
03-Nov-20 16:14 47.177006 -122.482274 1 10289ft 304kts
03-Nov-20 16:15 47.256197 -122.469726 0 9279ft 287kts
03-Nov-20 16:16 47.329329 -122.458679 1 8128ft 282kts
03-Nov-20 16:17 47.404520 -122.455065 354 7161ft 268kts
03-Nov-20 16:18 47.476361 -122.455044 355 6205ft 259kts
03-Nov-20 16:19 47.544779 -122.455335 354 5907ft 248kts
03-Nov-20 16:20 47.616226 -122.456029 358 4551ft 261kts
03-Nov-20 16:21 47.649290 -122.380580 94 3274ft 250kts
03-Nov-20 16:22 47.617104 -122.317356 174 3008ft 193kts
03-Nov-20 16:23 47.569686 -122.317134 179 2566ft 150kts
03-Nov-20 16:24 47.530698 -122.317477 180 1781ft 140kts
03-Nov-20 16:25 47.490927 -122.317653 180 1006ft 144kts
03-Nov-20 16:26 47.452782 -122.317956 180 437ft 99kts
03-Nov-20 16:27 47.442822 -122.317342 155 437ft 21kts
03-Nov-20 16:28 47.438551 -122.313734 143 437ft 15kts
03-Nov-20 16:29 47.438044 -122.307456 90 437ft 9kts
03-Nov-20 16:30 47.438048 -122.306673 76 437ft 1kts
03-Nov-20 16:31 47.440300 -122.306373 0 437ft 10kts
03-Nov-20 16:32 47.441299 -122.305947 75 437ft 6kts
03-Nov-20 16:33 47.441251 -122.304483 91 437ft 0kts
03-Nov-20 16:34 47.441251 -122.304478 91 437ft 0kts
03-Nov-20 16:35 47.441251 -122.304478 91 437ft 0kts
03-Nov-20 16:36 47.441251 -122.304478 91 437ft 0kts
03-Nov-20 16:37 47.441251 -122.304478 91 437ft 0kts

Navigation Log

Ident Type
Flight plan parsing failed, navigation log unavailable